North Hollywood, CA (91603)

5:09 PM PDT on September 02, 2014 (GMT -0700)
North Hollywood, CA | Change Station
CLOSE
Current Station
Personal Weather Station
Location: North Hollywood, CA
Elevation: 679 ft
Nearby Weather Stations

Elev 679 ft 34.18 °N, 118.37 °W | Updated 22 seconds ago

Clear
Clear
93.6 °F
Feels Like 92 °F
N
3.6
Wind Variable Wind from WSW
Gusts 3.6 mph

Today
High -- | Low -- °F
--% Chance of Precip.
Yesterday
High -- | Low -- °F
Precip. -- in
6:27 AM 7:17 PM
First Quarter, 56% visible
Pressure 29.73 in
Visibility 10.0 miles
Clouds Clear
Heat Index 92 °F
Dew Point 56 °F
Humidity 28%
Rainfall 0.00 in
Snow Depth Not available.
UV 3 out of 12
Pollen 7.00 out of 12
Ozone Moderate
PM2.5 Moderate
Flu Activity Not available.
METAR KBUR 022353Z 18011KT 10SM CLR 29/16 A2977 RMK AO2 SLP066 T02890156 10300 20250 56012

More Conditions Fewer Conditions

Pressure 29.73 in
Visibility 10.0 miles
Clouds Clear
Heat Index 92 °F
Dew Point 56 °F
Humidity 28%
Rainfall 0.00 in
Snow Depth Not available.
UV 3 out of 12
Pollen 7.00 out of 12
Ozone Moderate
PM2.5 Moderate
Flu Activity Not available.
METAR KBUR 022353Z 18011KT 10SM CLR 29/16 A2977 RMK AO2 SLP066 T02890156 10300 20250 56012

More Conditions Fewer Conditions

10-Day Weather Forecast

Almanac

Astronomy

Sep. 02, 2014 Rise Set
Actual Time 6:27 AM PDT 7:17 PM PDT
Civil Twilight 6:02 AM PDT 7:43 PM PDT
Nautical Twilight 5:32 AM PDT 8:13 PM PDT
Astronomical Twilight 5:00 AM PDT 8:44 PM PDT
Moon 1:57 PM PDT (9/2) No Moon Set
Length of Visible Light 13h 41m
Length of Day
12h 50m
Tomorrow will be 2m 3s shorter.
First Quarter, 56% of the Moon is Illuminated
Today
First Quarter
Sep 8
Full
Sep 15
Last Quarter
Sep 24
New
Oct 1
First Quarter

Today's Extremes

State Highs State Lows

Community

WunderPhotos

Upload Photos

1,749,803 photos uploaded!

Nearby

Air Quality

  Air Quality AQ Index Pollutant
Yesterday Moderate
OZONE
Yesterday Moderate
PM2.5
Current Moderate
PM2.5
Current Moderate
OZONE
Wednesday Moderate
OZONE
Wednesday Good
PM10
Wednesday Good
CO
Wednesday Good
NO2

Snow Depth

Station Depth Elevation
Leavitt Meadows 1 in 7200 ft
Summit Meadow 0 in 9122 ft
CSS Lab 0 in 6900 ft
Adin Mountain 0 in 6200 ft
Cedar Pass 0 in 7100 ft

Earthquake Activity

City Distance Mag. Time & Date
No recent earthquake activity has been reported nearby.
Minimum magnitude displayed is 2.5.

Coastal Water Temperatures

Place Temperature
Santa Monica Pier 73.0 °F
Los Angeles, CA 72.0 °F
La Jolla, CA 72.0 °F

Nearby Weather Stations